createdAt,value
2019-04-24T00:00:29.261Z,9.90
2019-04-24T00:03:08.468Z,9.90
2019-04-24T00:11:32.658Z,9.80
2019-04-24T00:14:07.394Z,9.80
2019-04-24T00:16:22.378Z,9.70
2019-04-24T00:19:23.782Z,9.70
2019-04-24T00:21:51.580Z,9.60
2019-04-24T00:24:37.872Z,9.60
2019-04-24T00:26:52.435Z,9.60
2019-04-24T00:44:14.445Z,9.20
2019-04-24T00:47:18.742Z,9.20
2019-04-24T00:49:32.582Z,9.20
2019-04-24T00:54:41.959Z,9.10
2019-04-24T00:57:04.920Z,9.10
2019-04-24T01:02:23.321Z,9.00
2019-04-24T01:17:55.754Z,8.70
2019-04-24T01:21:02.759Z,8.70
2019-04-24T01:23:08.300Z,8.70
2019-04-24T01:25:43.004Z,8.60
2019-04-24T01:36:02.279Z,8.50
2019-04-24T01:38:30.943Z,8.50
2019-04-24T01:46:20.935Z,8.40
2019-04-24T01:51:12.105Z,8.40
2019-04-24T01:56:08.924Z,8.40
2019-04-24T01:58:45.456Z,8.40
2019-04-24T02:01:14.551Z,8.40
2019-04-24T02:03:50.651Z,8.40
2019-04-24T02:09:23.702Z,8.30
2019-04-24T02:16:52.689Z,8.30
2019-04-24T02:19:22.823Z,8.30
2019-04-24T02:27:11.716Z,8.30
2019-04-24T02:29:26.006Z,8.30
2019-04-24T02:32:18.525Z,8.20
2019-04-24T02:34:50.931Z,8.30
2019-04-24T02:37:36.624Z,8.30
2019-04-24T02:47:54.685Z,8.20
2019-04-24T02:50:06.757Z,8.20
2019-04-24T02:52:51.964Z,8.20
2019-04-24T02:57:41.341Z,8.30
2019-04-24T03:00:19.352Z,8.30
2019-04-24T03:05:57.767Z,8.20
2019-04-24T03:13:32.517Z,8.10
2019-04-24T03:16:21.857Z,8.10
2019-04-24T03:19:37.787Z,8.00
2019-04-24T03:23:42.140Z,8.00
2019-04-24T03:29:02.001Z,7.90
2019-04-24T03:31:49.581Z,7.80
2019-04-24T03:34:18.890Z,7.80
2019-04-24T03:42:19.363Z,7.70
2019-04-24T03:44:24.287Z,7.70
2019-04-24T03:46:34.339Z,7.70
2019-04-24T03:52:09.237Z,7.60
2019-04-24T04:00:22.345Z,7.60
2019-04-24T04:03:11.645Z,7.60
2019-04-24T04:05:25.132Z,7.60
2019-04-24T04:08:02.354Z,7.60
2019-04-24T04:10:39.260Z,7.60
2019-04-24T04:15:33.851Z,7.60
2019-04-24T04:28:22.732Z,7.70
2019-04-24T04:50:41.938Z,8.10
2019-04-24T04:58:42.254Z,8.40
2019-04-24T05:04:06.107Z,8.70
2019-04-24T05:06:52.851Z,8.90
2019-04-24T05:12:40.325Z,9.20
2019-04-24T05:24:20.328Z,9.90
2019-04-24T05:32:12.306Z,10.20
2019-04-24T05:42:39.375Z,10.70
2019-04-24T05:50:20.363Z,11.60
2019-04-24T05:55:38.438Z,12.80
2019-04-24T06:01:01.250Z,14.00
2019-04-24T06:10:00.550Z,15.50
2019-04-24T06:12:40.132Z,15.80
2019-04-24T06:18:38.832Z,16.40
2019-04-24T06:36:53.333Z,18.60
2019-04-24T06:39:04.002Z,18.80
2019-04-24T06:41:54.553Z,18.60
2019-04-24T06:44:56.546Z,19.20
2019-04-24T06:47:22.707Z,19.80
2019-04-24T06:49:16.673Z,20.20
2019-04-24T06:52:17.454Z,20.60
2019-04-24T06:57:20.852Z,21.30
2019-04-24T06:59:44.046Z,21.90
2019-04-24T07:03:28.462Z,22.00
2019-04-24T07:05:27.199Z,22.20
2019-04-24T07:07:48.408Z,22.50
2019-04-24T07:11:05.038Z,22.60
2019-04-24T07:16:21.748Z,23.70
2019-04-24T07:19:07.702Z,23.80
2019-04-24T07:24:33.641Z,23.90
2019-04-24T07:27:01.771Z,23.60
2019-04-24T07:29:40.376Z,24.10
2019-04-24T07:32:30.009Z,24.20
2019-04-24T07:35:40.996Z,24.40
2019-04-24T07:38:00.772Z,24.10
2019-04-24T07:40:32.284Z,24.60
2019-04-24T07:43:06.165Z,25.10
2019-04-24T07:45:26.898Z,25.10
2019-04-24T07:47:45.845Z,25.50
2019-04-24T07:50:36.483Z,25.50
2019-04-24T07:58:35.422Z,27.30
2019-04-24T08:01:00.394Z,27.00
2019-04-24T08:03:34.130Z,27.30
2019-04-24T08:06:08.784Z,27.90
2019-04-24T08:08:44.492Z,27.30
2019-04-24T08:11:02.324Z,27.90
2019-04-24T08:16:08.913Z,26.40
2019-04-24T08:18:55.959Z,25.80
2019-04-24T08:21:30.263Z,27.50
2019-04-24T08:23:50.134Z,28.40
2019-04-24T08:26:09.808Z,28.80
2019-04-24T08:28:52.042Z,29.10
2019-04-24T08:31:57.619Z,29.80
2019-04-24T08:34:34.741Z,30.70
2019-04-24T08:37:02.121Z,30.20
2019-04-24T08:45:09.803Z,28.20
2019-04-24T08:48:00.545Z,28.60
2019-04-24T08:50:14.920Z,29.10
2019-04-24T08:55:19.919Z,30.70
2019-04-24T09:01:06.944Z,30.60
2019-04-24T09:06:03.906Z,29.20
2019-04-24T09:11:40.006Z,27.10
2019-04-24T09:14:15.472Z,27.60
2019-04-24T09:21:42.615Z,30.20
2019-04-24T09:24:35.378Z,31.10
2019-04-24T09:32:41.767Z,31.80
2019-04-24T09:35:12.241Z,30.20
2019-04-24T09:37:48.056Z,29.70
2019-04-24T09:45:25.642Z,31.40
2019-04-24T09:50:45.483Z,30.90
2019-04-24T09:53:29.782Z,29.70
2019-04-24T09:55:52.951Z,29.10
2019-04-24T09:58:41.941Z,29.50
2019-04-24T10:04:20.693Z,32.00
2019-04-24T10:07:09.790Z,33.30
2019-04-24T10:09:11.852Z,31.60
2019-04-24T10:14:29.379Z,33.80
2019-04-24T10:20:02.441Z,33.20
2019-04-24T10:22:29.295Z,33.40
2019-04-24T10:29:59.761Z,32.00
2019-04-24T10:33:06.709Z,31.20
2019-04-24T10:35:45.324Z,32.30
2019-04-24T10:38:46.640Z,33.30
2019-04-24T10:41:26.183Z,33.10
2019-04-24T10:44:17.841Z,33.00
2019-04-24T10:49:55.903Z,32.90
2019-04-24T10:52:20.827Z,33.80
2019-04-24T10:57:44.560Z,34.40
2019-04-24T11:03:12.192Z,32.30
2019-04-24T11:05:48.232Z,33.90
2019-04-24T11:08:20.131Z,36.00
2019-04-24T11:11:01.724Z,36.80
2019-04-24T11:13:48.270Z,37.90
2019-04-24T11:16:59.665Z,36.40
2019-04-24T11:21:54.948Z,33.40
2019-04-24T11:24:25.476Z,32.80
2019-04-24T11:27:04.867Z,33.70
2019-04-24T11:30:01.738Z,35.30
2019-04-24T11:32:34.861Z,36.30
2019-04-24T11:37:53.777Z,34.00
2019-04-24T11:43:25.798Z,35.10
2019-04-24T11:46:23.075Z,35.30
2019-04-24T11:49:14.478Z,35.90
2019-04-24T11:51:34.328Z,36.50
2019-04-24T11:53:57.130Z,35.60
2019-04-24T11:59:12.279Z,34.70
2019-04-24T12:02:13.454Z,36.40
2019-04-24T12:07:52.488Z,36.20
2019-04-24T12:10:16.657Z,34.90
2019-04-24T12:13:02.843Z,35.60
2019-04-24T12:15:39.323Z,36.80
2019-04-24T12:21:08.964Z,37.90
2019-04-24T12:23:42.617Z,35.00
2019-04-24T12:28:35.935Z,33.80
2019-04-24T12:31:10.640Z,33.20
2019-04-24T12:33:56.644Z,32.40
2019-04-24T12:36:14.869Z,31.60
2019-04-24T12:39:02.985Z,30.20
2019-04-24T12:44:42.966Z,30.70
2019-04-24T12:47:20.159Z,30.50
2019-04-24T12:52:13.947Z,31.80
2019-04-24T12:58:11.493Z,32.50
2019-04-24T13:01:02.773Z,33.20
2019-04-24T13:03:26.647Z,32.20
2019-04-24T13:08:49.873Z,30.20
2019-04-24T13:11:11.948Z,31.20
2019-04-24T13:13:51.726Z,31.30
2019-04-24T13:16:21.119Z,31.60
2019-04-24T13:19:09.273Z,31.20
2019-04-24T13:21:02.691Z,30.60
2019-04-24T13:23:46.017Z,30.60
2019-04-24T13:26:33.334Z,30.40
2019-04-24T13:32:21.984Z,30.30
2019-04-24T13:35:14.845Z,30.50
2019-04-24T13:37:55.720Z,30.10
2019-04-24T13:40:15.423Z,28.60
2019-04-24T13:42:48.263Z,27.90
2019-04-24T13:45:27.711Z,27.60
2019-04-24T13:48:09.159Z,27.90
2019-04-24T13:50:30.152Z,28.10
2019-04-24T13:55:29.670Z,28.40
2019-04-24T14:03:29.225Z,28.70
2019-04-24T14:05:45.985Z,28.90
2019-04-24T14:13:03.065Z,28.00
2019-04-24T14:15:38.506Z,27.40
2019-04-24T14:23:38.932Z,27.00
2019-04-24T14:28:45.138Z,27.40
2019-04-24T14:33:42.082Z,27.50
2019-04-24T14:36:18.696Z,27.20
2019-04-24T14:38:46.038Z,27.20
2019-04-24T14:44:05.500Z,27.10
2019-04-24T14:46:28.630Z,26.90
2019-04-24T14:49:03.753Z,26.70
2019-04-24T14:51:24.086Z,26.80
2019-04-24T14:54:08.146Z,26.70
2019-04-24T14:56:43.161Z,26.50
2019-04-24T14:59:20.728Z,26.80
2019-04-24T15:01:58.464Z,26.80
2019-04-24T15:04:15.424Z,27.00
2019-04-24T15:12:07.420Z,27.10
2019-04-24T15:22:13.636Z,26.20
2019-04-24T15:24:55.633Z,26.20
2019-04-24T15:32:15.856Z,26.30
2019-04-24T15:34:49.732Z,26.20
2019-04-24T15:37:27.365Z,26.10
2019-04-24T15:39:56.327Z,26.00
2019-04-24T15:42:08.995Z,25.90
2019-04-24T15:44:48.400Z,25.80
2019-04-24T15:47:26.260Z,25.70
2019-04-24T15:49:50.729Z,25.60
2019-04-24T15:51:45.397Z,25.50
2019-04-24T15:54:14.401Z,25.40
2019-04-24T15:56:43.705Z,25.40
2019-04-24T15:59:36.870Z,25.30
2019-04-24T16:02:20.942Z,25.20
2019-04-24T16:07:05.912Z,25.10
2019-04-24T16:09:36.277Z,25.00
2019-04-24T16:12:05.320Z,24.80
2019-04-24T16:17:33.286Z,24.60
2019-04-24T16:22:30.232Z,24.40
2019-04-24T16:25:10.933Z,24.40
2019-04-24T16:27:45.922Z,24.40
2019-04-24T16:35:14.966Z,24.30
2019-04-24T16:50:34.696Z,23.90
2019-04-24T16:53:05.570Z,23.90
2019-04-24T17:05:38.798Z,23.50
2019-04-24T17:10:57.682Z,23.30
2019-04-24T17:15:45.736Z,23.20
2019-04-24T17:18:25.181Z,23.00
2019-04-24T17:23:35.094Z,22.80
2019-04-24T17:33:30.902Z,22.50
2019-04-24T17:36:11.425Z,22.40
2019-04-24T17:38:17.455Z,22.30
2019-04-24T17:40:47.005Z,22.20
2019-04-24T17:43:48.547Z,22.20
2019-04-24T17:46:24.547Z,22.00
2019-04-24T17:48:49.018Z,22.00
2019-04-24T17:51:25.234Z,21.90
2019-04-24T17:53:52.631Z,21.80
2019-04-24T17:56:18.241Z,21.80
2019-04-24T17:58:23.844Z,21.70
2019-04-24T18:00:59.111Z,21.50
2019-04-24T18:03:29.118Z,21.50
2019-04-24T18:05:58.202Z,21.40
2019-04-24T18:08:27.201Z,21.40
2019-04-24T18:10:56.205Z,21.30
2019-04-24T18:13:25.214Z,21.30
2019-04-24T18:15:54.364Z,21.20
2019-04-24T18:18:23.402Z,21.10
2019-04-24T18:20:53.063Z,21.10
2019-04-24T18:23:22.465Z,20.90
2019-04-24T18:26:02.169Z,20.90
2019-04-24T18:28:32.492Z,20.70
2019-04-24T18:31:01.951Z,20.70
2019-04-24T18:33:31.798Z,20.60
2019-04-24T18:36:00.812Z,20.60
2019-04-24T18:38:31.507Z,20.60
2019-04-24T18:41:01.900Z,20.60
2019-04-24T18:43:31.473Z,20.50
2019-04-24T18:46:00.414Z,20.50
2019-04-24T18:48:29.338Z,20.40
2019-04-24T18:50:58.351Z,20.30
2019-04-24T18:53:27.438Z,20.20
2019-04-24T18:55:56.370Z,20.20
2019-04-24T18:58:25.377Z,20.10
2019-04-24T19:00:54.566Z,20.00
2019-04-24T19:03:23.557Z,20.00
2019-04-24T19:05:52.577Z,19.80
2019-04-24T19:08:22.022Z,19.80
2019-04-24T19:10:51.560Z,19.70
2019-04-24T19:13:21.920Z,19.60
2019-04-24T19:15:51.350Z,19.50
2019-04-24T19:18:22.131Z,19.40
2019-04-24T19:20:51.749Z,19.30
2019-04-24T19:23:21.342Z,19.10
2019-04-24T19:25:52.892Z,19.00
2019-04-24T19:28:21.629Z,18.80
2019-04-24T19:30:52.265Z,18.70
2019-04-24T19:33:21.633Z,18.60
2019-04-24T19:35:51.473Z,18.40
2019-04-24T19:38:21.416Z,18.20
2019-04-24T19:40:51.805Z,18.10
2019-04-24T19:43:21.366Z,18.00
2019-04-24T19:45:51.907Z,17.90
2019-04-24T19:48:25.088Z,17.80
2019-04-24T19:50:51.868Z,17.70
2019-04-24T19:53:25.048Z,17.60
2019-04-24T19:55:52.315Z,17.60
2019-04-24T19:58:22.042Z,17.70
2019-04-24T20:00:52.237Z,17.70
2019-04-24T20:03:21.792Z,17.60
2019-04-24T20:05:53.673Z,17.70
2019-04-24T20:08:26.228Z,17.60
2019-04-24T20:11:24.290Z,17.60
2019-04-24T20:13:53.297Z,17.60
2019-04-24T20:16:22.947Z,17.50
2019-04-24T20:18:52.285Z,17.50
2019-04-24T20:21:21.628Z,17.40
2019-04-24T20:23:52.310Z,17.40
2019-04-24T20:26:22.333Z,17.30
2019-04-24T20:28:52.325Z,17.30
2019-04-24T20:31:22.099Z,17.30
2019-04-24T20:33:51.424Z,17.40
2019-04-24T20:36:22.317Z,17.50
2019-04-24T20:38:52.062Z,17.40
2019-04-24T20:41:23.136Z,17.20
2019-04-24T20:43:51.941Z,16.90
2019-04-24T20:46:21.737Z,16.70
2019-04-24T20:48:51.351Z,16.40
2019-04-24T20:51:22.117Z,16.10
2019-04-24T20:53:51.640Z,15.80
2019-04-24T20:56:21.009Z,15.50
2019-04-24T20:58:51.948Z,15.20
2019-04-24T21:01:23.100Z,15.00
2019-04-24T21:03:52.897Z,14.70
2019-04-24T21:06:35.285Z,14.50
2019-04-24T21:09:32.778Z,14.30
2019-04-24T21:12:02.549Z,14.20
2019-04-24T21:14:31.601Z,14.10
2019-04-24T21:17:00.614Z,13.90
2019-04-24T21:19:29.558Z,13.80
2019-04-24T21:21:58.575Z,13.60
2019-04-24T21:24:28.316Z,13.50
2019-04-24T21:26:58.198Z,13.30
2019-04-24T21:29:27.267Z,13.20
2019-04-24T21:31:56.314Z,13.10
2019-04-24T21:34:25.235Z,13.10
2019-04-24T21:36:54.270Z,13.00
2019-04-24T21:39:23.590Z,12.80
2019-04-24T21:41:53.545Z,12.70
2019-04-24T21:44:24.617Z,12.70
2019-04-24T21:46:53.435Z,12.60
2019-04-24T21:49:23.169Z,12.50
2019-04-24T21:51:52.230Z,12.50
2019-04-24T21:54:21.432Z,12.40
2019-04-24T21:56:51.307Z,12.40
2019-04-24T21:59:21.635Z,12.30
2019-04-24T22:02:12.759Z,12.20
2019-04-24T22:04:45.061Z,12.20
2019-04-24T22:07:19.717Z,12.20
2019-04-24T22:09:48.811Z,12.10
2019-04-24T22:12:18.345Z,12.10
2019-04-24T22:14:47.953Z,12.10
2019-04-24T22:17:17.550Z,12.00
2019-04-24T22:19:46.758Z,11.90
2019-04-24T22:22:33.930Z,11.80
2019-04-24T22:25:18.225Z,11.70
2019-04-24T22:27:47.308Z,11.60
2019-04-24T22:30:40.328Z,11.50
2019-04-24T22:33:09.705Z,11.40
2019-04-24T22:35:42.024Z,11.30
2019-04-24T22:38:13.422Z,11.20
2019-04-24T22:40:48.217Z,11.20
2019-04-24T22:43:17.464Z,11.10
2019-04-24T22:45:46.528Z,11.00
2019-04-24T22:48:15.566Z,11.00
2019-04-24T22:50:44.557Z,10.90
2019-04-24T22:53:13.541Z,10.90
2019-04-24T22:55:42.556Z,10.80
2019-04-24T22:58:11.542Z,10.80
2019-04-24T23:00:40.485Z,10.70
2019-04-24T23:03:09.553Z,10.60
2019-04-24T23:05:39.308Z,10.50
2019-04-24T23:08:08.626Z,10.40
2019-04-24T23:10:40.722Z,10.30
2019-04-24T23:13:09.118Z,10.20
2019-04-24T23:15:39.150Z,10.20
2019-04-24T23:18:08.900Z,10.10
2019-04-24T23:20:44.358Z,10.00
2019-04-24T23:23:38.153Z,9.90
2019-04-24T23:26:38.520Z,9.80
2019-04-24T23:29:22.665Z,9.70
2019-04-24T23:32:07.258Z,9.60
2019-04-24T23:34:37.340Z,9.50
2019-04-24T23:37:06.978Z,9.40
2019-04-24T23:39:35.907Z,9.40
2019-04-24T23:42:05.149Z,9.20
2019-04-24T23:44:34.792Z,9.10
2019-04-24T23:47:04.069Z,9.00
2019-04-24T23:49:32.896Z,9.00
2019-04-24T23:52:01.733Z,8.90
2019-04-24T23:54:30.720Z,8.90
2019-04-24T23:56:59.754Z,8.80
2019-04-24T23:59:28.633Z,8.80
